ZGGG METAR and TAF | Updated Today

ZGGG METAR

Guangzhou Baiyun International Airport

Observation time: 28 min. ago

ZGGG 052000Z VRB01MPS 9999 SCT010 OVC030 15/15 Q1015 NOSIG

Need help? Read our tutorial on how to read METARs or read the parsed version below.

Guangzhou Baiyun International Airport (ZGGG) METAR

  • Weather conditions on Sun, 05 Feb 2023 20:00:00 +0000 (28 min. ago):
  • Present conditions: Dry
  • Clouds: Scattered at 305 meters; overcast sky at 914 meters
  • Visibility: Greater than 10 km
  • Wind: Variable at 1 knots
  • Temperature: 15 celsius
  • Dew point: 15 celsius
  • Pressure: 1015 millibars
  • Remarks: None


Useful to know...

ZGGG TAF

Guangzhou Baiyun International Airport

TAF ZGGG 051512Z 0518/0618 05003MPS 6000 SCT011 BKN040 TX22/0607Z TN14/0522Z
Observation time: 5:16 hr. ago
Need help? Read our tutorial on how to read TAFs or read the parsed version below.

Parsed version of TAF for Guangzhou Baiyun International Airport (ZGGG)

  • From 05 February at 18:00 UTC, to day 06 of the month at 18:00 UTC
  • Clouds: Scattered at 335 meters; broken sky at 1219 meters
  • Visibility: 6000 meters
  • Wind: 50 degrees at 3

Airports near ZGGG

No airports found within 100nm radius.